createdAt,value
2022-08-26T00:00:48.152Z,43.88
2022-08-26T00:03:16.233Z,43.63
2022-08-26T00:05:45.193Z,42.93
2022-08-26T00:08:15.066Z,42.44
2022-08-26T00:10:42.874Z,42.50
2022-08-26T00:13:10.974Z,42.33
2022-08-26T00:15:38.738Z,42.66
2022-08-26T00:18:05.877Z,42.20
2022-08-26T00:20:49.323Z,42.80
2022-08-26T00:23:15.920Z,42.68
2022-08-26T00:25:42.794Z,43.00
2022-08-26T00:28:12.293Z,42.88
2022-08-26T00:30:39.215Z,43.04
2022-08-26T00:33:05.893Z,42.91
2022-08-26T00:35:33.533Z,43.26
2022-08-26T00:38:01.198Z,42.86
2022-08-26T00:40:38.337Z,43.28
2022-08-26T00:43:09.426Z,43.29
2022-08-26T00:45:59.648Z,43.41
2022-08-26T00:48:32.156Z,43.28
2022-08-26T00:51:11.623Z,43.59
2022-08-26T00:53:45.601Z,43.04
2022-08-26T00:56:29.143Z,43.38
2022-08-26T00:59:00.358Z,43.54
2022-08-26T01:01:26.883Z,43.98
2022-08-26T01:03:54.779Z,43.89
2022-08-26T01:06:24.800Z,43.99
2022-08-26T01:08:52.653Z,43.72
2022-08-26T01:11:20.545Z,43.82
2022-08-26T01:13:52.125Z,43.80
2022-08-26T01:16:18.862Z,43.73
2022-08-26T01:18:48.320Z,43.82
2022-08-26T01:21:47.186Z,43.55
2022-08-26T01:24:14.754Z,43.81
2022-08-26T01:26:44.434Z,43.66
2022-08-26T01:29:17.519Z,43.91
2022-08-26T01:31:54.447Z,43.62
2022-08-26T01:34:26.118Z,43.93
2022-08-26T01:37:00.915Z,44.11
2022-08-26T01:39:27.440Z,43.99
2022-08-26T01:41:57.882Z,44.39
2022-08-26T01:44:34.690Z,44.61
2022-08-26T01:47:02.288Z,44.59
2022-08-26T01:49:34.965Z,44.89
2022-08-26T01:52:05.151Z,44.97
2022-08-26T01:54:33.223Z,44.76
2022-08-26T01:57:01.399Z,45.02
2022-08-26T01:59:30.075Z,45.08
2022-08-26T02:01:57.196Z,45.24
2022-08-26T02:04:33.613Z,45.23
2022-08-26T02:07:06.200Z,45.43
2022-08-26T02:09:41.209Z,45.21
2022-08-26T02:12:10.683Z,45.52
2022-08-26T02:14:44.610Z,45.20
2022-08-26T02:17:11.666Z,45.38
2022-08-26T02:19:45.099Z,45.33
2022-08-26T02:22:17.704Z,45.86
2022-08-26T02:24:56.928Z,45.69
2022-08-26T02:27:28.281Z,46.02
2022-08-26T02:30:06.184Z,46.37
2022-08-26T02:32:32.895Z,46.42
2022-08-26T02:34:59.400Z,46.43
2022-08-26T02:37:30.812Z,46.47
2022-08-26T02:39:57.599Z,46.25
2022-08-26T02:42:24.172Z,46.77
2022-08-26T02:44:51.515Z,46.75
2022-08-26T02:47:18.123Z,46.71
2022-08-26T02:49:47.450Z,46.64
2022-08-26T02:52:14.864Z,46.72
2022-08-26T02:54:41.435Z,46.85
2022-08-26T02:57:09.048Z,46.90
2022-08-26T02:59:35.561Z,47.11
2022-08-26T03:02:02.579Z,46.99
2022-08-26T03:04:29.711Z,46.90
2022-08-26T03:07:00.114Z,47.22
2022-08-26T03:09:27.045Z,46.69
2022-08-26T03:11:53.721Z,46.90
2022-08-26T03:14:20.316Z,46.93
2022-08-26T03:16:48.436Z,46.97
2022-08-26T03:19:15.183Z,47.15
2022-08-26T03:21:44.990Z,46.75
2022-08-26T03:24:14.203Z,47.00
2022-08-26T03:26:41.076Z,46.74
2022-08-26T03:29:19.554Z,47.21
2022-08-26T03:31:47.091Z,47.19
2022-08-26T03:34:14.135Z,47.18
2022-08-26T03:36:41.652Z,47.00
2022-08-26T03:39:08.466Z,47.26
2022-08-26T03:41:36.286Z,47.18
2022-08-26T03:44:07.939Z,46.92
2022-08-26T03:46:35.226Z,47.36
2022-08-26T03:49:03.623Z,47.63
2022-08-26T03:51:30.124Z,47.55
2022-08-26T03:53:57.959Z,47.73
2022-08-26T03:56:24.728Z,47.84
2022-08-26T03:58:53.420Z,47.62
2022-08-26T04:01:20.717Z,47.74
2022-08-26T04:03:48.180Z,47.98
2022-08-26T04:06:14.954Z,48.32
2022-08-26T04:08:43.443Z,47.88
2022-08-26T04:11:19.735Z,48.00
2022-08-26T04:13:47.335Z,48.36
2022-08-26T04:16:15.524Z,48.36
2022-08-26T04:18:46.877Z,48.33
2022-08-26T04:21:15.389Z,48.63
2022-08-26T04:23:47.120Z,48.59
2022-08-26T04:26:13.961Z,48.32
2022-08-26T04:28:40.438Z,48.70
2022-08-26T04:31:11.616Z,48.75
2022-08-26T04:33:41.584Z,48.69
2022-08-26T04:36:09.659Z,48.88
2022-08-26T04:38:36.668Z,49.07
2022-08-26T04:41:05.464Z,48.98
2022-08-26T04:43:32.179Z,48.91
2022-08-26T04:46:04.282Z,48.72
2022-08-26T04:48:32.610Z,48.74
2022-08-26T04:50:59.754Z,48.45
2022-08-26T04:53:27.872Z,48.65
2022-08-26T04:55:55.265Z,48.47
2022-08-26T04:58:24.485Z,48.60
2022-08-26T05:00:54.950Z,48.58
2022-08-26T05:03:23.336Z,48.39
2022-08-26T05:05:50.924Z,48.56
2022-08-26T05:08:19.550Z,48.56
2022-08-26T05:10:50.781Z,48.53
2022-08-26T05:13:20.520Z,48.65
2022-08-26T05:15:48.647Z,48.23
2022-08-26T05:18:20.030Z,47.94
2022-08-26T05:20:53.907Z,47.69
2022-08-26T05:23:22.691Z,47.92
2022-08-26T05:25:55.849Z,47.81
2022-08-26T05:28:26.500Z,47.64
2022-08-26T05:30:54.315Z,47.02
2022-08-26T05:33:20.859Z,46.94
2022-08-26T05:35:48.617Z,47.17
2022-08-26T05:38:18.820Z,47.13
2022-08-26T05:40:48.277Z,47.22
2022-08-26T05:43:16.536Z,46.89
2022-08-26T05:45:50.555Z,46.63
2022-08-26T05:48:24.167Z,46.63
2022-08-26T05:50:52.937Z,47.29
2022-08-26T05:53:22.057Z,46.67
2022-08-26T05:55:53.693Z,47.16
2022-08-26T05:58:22.816Z,46.92
2022-08-26T06:01:12.807Z,46.65
2022-08-26T06:03:44.131Z,46.94
2022-08-26T06:06:20.140Z,46.39
2022-08-26T06:08:47.758Z,45.78
2022-08-26T06:11:18.338Z,45.50
2022-08-26T06:13:46.015Z,45.34
2022-08-26T06:16:16.282Z,45.18
2022-08-26T06:18:45.892Z,45.69
2022-08-26T06:21:15.235Z,45.98
2022-08-26T06:23:42.791Z,45.96
2022-08-26T06:26:11.207Z,46.57
2022-08-26T06:28:37.895Z,45.31
2022-08-26T06:31:04.608Z,45.15
2022-08-26T06:33:31.147Z,45.17
2022-08-26T06:35:58.234Z,45.79
2022-08-26T06:38:25.466Z,45.76
2022-08-26T06:40:54.194Z,46.63
2022-08-26T06:43:24.809Z,46.64
2022-08-26T06:45:52.319Z,46.48
2022-08-26T06:48:20.480Z,46.17
2022-08-26T06:50:47.930Z,46.15
2022-08-26T06:53:16.669Z,47.01
2022-08-26T06:55:45.725Z,46.72
2022-08-26T06:58:13.481Z,47.38
2022-08-26T07:00:40.585Z,49.36
2022-08-26T07:03:13.752Z,47.55
2022-08-26T07:05:40.303Z,48.29
2022-08-26T07:08:06.892Z,48.48
2022-08-26T07:10:33.390Z,48.50
2022-08-26T07:13:00.444Z,47.41
2022-08-26T07:15:31.005Z,47.75
2022-08-26T07:17:58.091Z,46.91
2022-08-26T07:20:24.748Z,47.17
2022-08-26T07:22:51.525Z,47.31
2022-08-26T07:25:19.356Z,46.30
2022-08-26T07:27:46.835Z,47.36
2022-08-26T07:30:20.950Z,47.33
2022-08-26T07:32:47.467Z,48.25
2022-08-26T07:35:14.859Z,49.61
2022-08-26T07:37:42.730Z,49.76
2022-08-26T07:40:10.103Z,49.92
2022-08-26T07:42:36.662Z,52.87
2022-08-26T07:45:03.926Z,55.74
2022-08-26T07:47:30.457Z,57.84
2022-08-26T07:49:57.866Z,59.87
2022-08-26T07:52:27.889Z,61.09
2022-08-26T07:54:58.504Z,61.16
2022-08-26T07:57:26.544Z,61.65
2022-08-26T07:59:55.204Z,60.67
2022-08-26T08:02:23.144Z,59.30
2022-08-26T08:04:49.667Z,57.51
2022-08-26T08:07:16.189Z,56.08
2022-08-26T08:09:42.736Z,56.52
2022-08-26T08:12:09.287Z,55.13
2022-08-26T08:14:41.287Z,53.10
2022-08-26T08:17:08.569Z,51.44
2022-08-26T08:19:37.021Z,50.40
2022-08-26T08:22:17.058Z,51.19
2022-08-26T08:24:44.324Z,52.15
2022-08-26T08:27:10.944Z,51.30
2022-08-26T08:29:38.670Z,50.67
2022-08-26T08:32:05.633Z,49.99
2022-08-26T08:34:38.186Z,50.77
2022-08-26T08:37:08.642Z,50.41
2022-08-26T08:39:37.656Z,50.30
2022-08-26T08:42:32.865Z,49.31
2022-08-26T08:45:10.383Z,48.73
2022-08-26T08:47:41.825Z,48.54
2022-08-26T08:50:31.034Z,48.65
2022-08-26T08:53:21.718Z,48.76
2022-08-26T08:56:04.863Z,48.53
2022-08-26T08:59:03.784Z,49.70
2022-08-26T09:01:42.380Z,48.58
2022-08-26T09:04:24.114Z,50.37
2022-08-26T09:06:55.575Z,51.24
2022-08-26T09:09:41.347Z,52.65
2022-08-26T09:12:19.462Z,52.79
2022-08-26T09:14:49.059Z,53.48
2022-08-26T09:17:53.700Z,53.52
2022-08-26T09:20:32.481Z,51.16
2022-08-26T09:22:59.363Z,53.77
2022-08-26T09:25:26.203Z,55.32
2022-08-26T09:27:53.967Z,56.95
2022-08-26T09:30:31.427Z,57.32
2022-08-26T09:33:10.076Z,57.53
2022-08-26T09:35:39.811Z,59.23
2022-08-26T09:38:26.778Z,61.34
2022-08-26T09:41:03.718Z,61.82
2022-08-26T09:43:32.692Z,65.70
2022-08-26T09:46:21.982Z,65.68
2022-08-26T09:48:53.054Z,66.32
2022-08-26T09:51:19.735Z,65.14
2022-08-26T09:53:57.427Z,60.10
2022-08-26T09:56:28.309Z,58.17
2022-08-26T09:58:56.622Z,56.69
2022-08-26T10:01:23.297Z,58.63
2022-08-26T10:03:51.045Z,60.75
2022-08-26T10:06:17.581Z,60.37
2022-08-26T10:08:57.229Z,62.52
2022-08-26T10:11:47.203Z,61.25
2022-08-26T10:14:24.978Z,62.23
2022-08-26T10:17:03.287Z,61.14
2022-08-26T10:19:55.958Z,61.81
2022-08-26T10:22:38.825Z,62.42
2022-08-26T10:25:12.851Z,63.16
2022-08-26T10:27:53.840Z,61.74
2022-08-26T10:30:26.060Z,60.53
2022-08-26T10:33:00.917Z,59.21
2022-08-26T10:35:27.744Z,58.78
2022-08-26T10:38:16.725Z,58.18
2022-08-26T10:40:57.533Z,57.30
2022-08-26T10:43:40.901Z,56.50
2022-08-26T10:46:16.453Z,57.61
2022-08-26T10:48:57.565Z,58.00
2022-08-26T10:51:34.559Z,56.64
2022-08-26T10:54:09.519Z,56.39
2022-08-26T10:56:53.493Z,54.85
2022-08-26T10:59:43.075Z,52.91
2022-08-26T11:02:35.372Z,53.06
2022-08-26T11:05:05.564Z,52.01
2022-08-26T11:07:42.633Z,51.35
2022-08-26T11:10:38.286Z,49.82
2022-08-26T11:13:06.606Z,45.38
2022-08-26T11:15:33.045Z,46.30
2022-08-26T11:18:03.086Z,47.18
2022-08-26T11:20:37.587Z,47.26
2022-08-26T11:23:20.346Z,47.97
2022-08-26T11:25:57.212Z,47.34
2022-08-26T11:28:35.923Z,47.23
2022-08-26T11:31:04.788Z,45.71
2022-08-26T11:34:01.575Z,45.99
2022-08-26T11:36:34.454Z,45.76
2022-08-26T11:39:21.319Z,46.00
2022-08-26T11:41:52.954Z,45.61
2022-08-26T11:44:40.782Z,47.27
2022-08-26T11:47:07.858Z,47.49
2022-08-26T11:49:38.872Z,47.49
2022-08-26T11:52:18.418Z,47.76
2022-08-26T11:55:01.795Z,48.08
2022-08-26T11:57:30.220Z,46.62
2022-08-26T11:59:57.488Z,45.79
2022-08-26T12:02:25.015Z,43.10
2022-08-26T12:04:55.596Z,43.85
2022-08-26T12:07:28.349Z,45.56
2022-08-26T12:10:04.406Z,43.31
2022-08-26T12:12:36.264Z,41.93
2022-08-26T12:15:14.049Z,40.22
2022-08-26T12:17:42.219Z,41.23
2022-08-26T12:20:33.014Z,41.54
2022-08-26T12:22:59.562Z,41.56
2022-08-26T12:25:26.735Z,40.81
2022-08-26T12:27:54.173Z,39.58
2022-08-26T12:30:23.738Z,39.01
2022-08-26T12:33:10.829Z,38.69
2022-08-26T12:35:52.861Z,39.20
2022-08-26T12:38:22.250Z,38.74
2022-08-26T12:40:48.951Z,38.00
2022-08-26T12:43:37.100Z,37.94
2022-08-26T12:46:04.334Z,38.17
2022-08-26T12:48:37.842Z,37.72
2022-08-26T12:51:09.228Z,38.03
2022-08-26T12:53:43.228Z,37.51
2022-08-26T12:56:38.658Z,36.55
2022-08-26T12:59:22.064Z,36.91
2022-08-26T13:01:48.672Z,36.27
2022-08-26T13:04:41.432Z,35.86
2022-08-26T13:07:23.673Z,38.04
2022-08-26T13:09:52.886Z,38.71
2022-08-26T13:12:39.622Z,39.14
2022-08-26T13:15:08.088Z,40.13
2022-08-26T13:17:34.622Z,39.33
2022-08-26T13:20:03.800Z,38.10
2022-08-26T13:22:31.716Z,41.43
2022-08-26T13:24:58.302Z,40.81
2022-08-26T13:27:26.772Z,40.33
2022-08-26T13:29:54.866Z,41.36
2022-08-26T13:32:22.267Z,40.85
2022-08-26T13:34:54.888Z,41.08
2022-08-26T13:37:21.589Z,39.57
2022-08-26T13:39:51.218Z,39.04
2022-08-26T13:42:17.780Z,38.44
2022-08-26T13:44:44.478Z,37.53
2022-08-26T13:47:10.981Z,37.70
2022-08-26T13:49:37.486Z,38.72
2022-08-26T13:52:04.057Z,38.36
2022-08-26T13:54:30.708Z,38.27
2022-08-26T13:56:57.226Z,36.85
2022-08-26T13:59:23.816Z,36.86
2022-08-26T14:01:50.330Z,37.38
2022-08-26T14:04:16.822Z,37.40
2022-08-26T14:06:49.857Z,36.87
2022-08-26T14:09:16.366Z,37.00
2022-08-26T14:11:50.800Z,36.48
2022-08-26T14:14:21.434Z,36.95
2022-08-26T14:16:58.983Z,37.04
2022-08-26T14:19:30.550Z,36.57
2022-08-26T14:21:57.336Z,36.50
2022-08-26T14:24:23.839Z,36.22
2022-08-26T14:26:50.358Z,35.09
2022-08-26T14:29:17.116Z,35.01
2022-08-26T14:31:43.884Z,34.93
2022-08-26T14:34:13.766Z,34.62
2022-08-26T14:36:40.286Z,34.53
2022-08-26T14:39:10.437Z,34.80
2022-08-26T14:41:54.399Z,34.20
2022-08-26T14:44:25.872Z,34.00
2022-08-26T14:46:53.916Z,34.62
2022-08-26T14:49:22.701Z,35.44
2022-08-26T14:51:49.986Z,35.70
2022-08-26T14:54:18.255Z,36.30
2022-08-26T14:56:57.320Z,36.53
2022-08-26T14:59:30.817Z,36.71
2022-08-26T15:01:57.641Z,37.17
2022-08-26T15:04:25.052Z,36.87
2022-08-26T15:06:54.513Z,36.87
2022-08-26T15:09:22.295Z,37.88
2022-08-26T15:11:49.328Z,37.64
2022-08-26T15:14:19.408Z,38.29
2022-08-26T15:16:52.279Z,37.72
2022-08-26T15:19:19.833Z,38.62
2022-08-26T15:21:47.427Z,38.39
2022-08-26T15:24:17.032Z,38.42
2022-08-26T15:26:44.875Z,38.47
2022-08-26T15:29:11.584Z,38.41
2022-08-26T15:31:38.191Z,38.73
2022-08-26T15:34:08.555Z,37.62
2022-08-26T15:36:38.331Z,36.43
2022-08-26T15:39:07.430Z,35.87
2022-08-26T15:41:35.119Z,35.01
2022-08-26T15:44:03.571Z,34.84
2022-08-26T15:46:31.209Z,34.22
2022-08-26T15:48:57.870Z,33.63
2022-08-26T15:51:31.290Z,32.63
2022-08-26T15:53:58.886Z,31.26
2022-08-26T15:56:31.646Z,30.78
2022-08-26T15:58:59.136Z,31.32
2022-08-26T16:01:28.570Z,31.15
2022-08-26T16:03:55.946Z,34.32
2022-08-26T16:06:25.905Z,35.87
2022-08-26T16:08:52.456Z,35.67
2022-08-26T16:11:19.104Z,36.28
2022-08-26T16:13:46.226Z,36.33
2022-08-26T16:16:12.791Z,36.58
2022-08-26T16:18:39.306Z,38.09
2022-08-26T16:21:13.192Z,38.04
2022-08-26T16:23:40.738Z,38.29
2022-08-26T16:26:18.888Z,37.90
2022-08-26T16:28:46.187Z,38.30
2022-08-26T16:31:13.500Z,38.54
2022-08-26T16:33:40.293Z,38.25
2022-08-26T16:36:08.876Z,38.04
2022-08-26T16:38:37.306Z,37.49
2022-08-26T16:41:04.577Z,37.61
2022-08-26T16:43:31.158Z,38.11
2022-08-26T16:45:57.853Z,38.28
2022-08-26T16:48:24.492Z,39.27
2022-08-26T16:50:51.336Z,38.52
2022-08-26T16:53:17.923Z,37.09
2022-08-26T16:55:46.009Z,37.10
2022-08-26T16:58:12.568Z,36.26
2022-08-26T17:00:39.066Z,35.13
2022-08-26T17:03:05.660Z,34.19
2022-08-26T17:05:32.351Z,34.28
2022-08-26T17:08:00.250Z,33.77
2022-08-26T17:10:28.450Z,33.66
2022-08-26T17:12:55.301Z,33.36
2022-08-26T17:15:22.294Z,32.34
2022-08-26T17:17:49.322Z,32.56
2022-08-26T17:20:17.386Z,32.18
2022-08-26T17:22:46.945Z,31.63
2022-08-26T17:25:22.779Z,31.68
2022-08-26T17:27:50.550Z,32.21
2022-08-26T17:30:17.938Z,32.96
2022-08-26T17:32:45.235Z,33.67
2022-08-26T17:35:13.104Z,34.40
2022-08-26T17:37:40.821Z,35.26
2022-08-26T17:40:12.670Z,36.22
2022-08-26T17:42:40.105Z,35.63
2022-08-26T17:45:08.431Z,35.57
2022-08-26T17:47:35.933Z,35.53
2022-08-26T17:50:05.843Z,35.96
2022-08-26T17:52:32.623Z,37.04
2022-08-26T17:54:59.113Z,36.82
2022-08-26T17:57:25.669Z,37.17
2022-08-26T17:59:53.487Z,37.91
2022-08-26T18:02:20.299Z,38.73
2022-08-26T18:04:47.074Z,38.70
2022-08-26T18:07:14.418Z,39.85
2022-08-26T18:09:40.944Z,40.63
2022-08-26T18:12:07.933Z,41.46
2022-08-26T18:14:34.678Z,41.25
2022-08-26T18:17:01.760Z,41.05
2022-08-26T18:19:28.308Z,41.07
2022-08-26T18:21:54.938Z,40.43
2022-08-26T18:24:21.622Z,40.04
2022-08-26T18:26:48.120Z,39.50
2022-08-26T18:29:16.104Z,39.01
2022-08-26T18:31:43.045Z,38.82
2022-08-26T18:34:10.478Z,39.42
2022-08-26T18:36:36.981Z,38.97
2022-08-26T18:39:05.981Z,39.22
2022-08-26T18:41:37.994Z,38.99
2022-08-26T18:44:04.492Z,39.01
2022-08-26T18:46:31.151Z,38.80
2022-08-26T18:48:57.848Z,39.39
2022-08-26T18:51:30.041Z,39.69
2022-08-26T18:53:58.149Z,39.65
2022-08-26T18:56:24.861Z,40.11
2022-08-26T18:58:51.730Z,40.41
2022-08-26T19:01:19.654Z,40.25
2022-08-26T19:03:48.285Z,39.86
2022-08-26T19:06:21.332Z,40.14
2022-08-26T19:08:49.736Z,40.33
2022-08-26T19:11:18.285Z,39.93
2022-08-26T19:14:00.766Z,40.04
2022-08-26T19:16:28.309Z,39.55
2022-08-26T19:18:56.833Z,39.59
2022-08-26T19:21:23.391Z,39.18
2022-08-26T19:23:50.563Z,38.79
2022-08-26T19:26:17.906Z,39.06
2022-08-26T19:28:44.601Z,39.72
2022-08-26T19:31:12.156Z,39.45
2022-08-26T19:33:41.179Z,39.62
2022-08-26T19:36:12.641Z,39.13
2022-08-26T19:38:41.150Z,40.02
2022-08-26T19:41:10.855Z,40.31
2022-08-26T19:43:37.448Z,40.32
2022-08-26T19:46:16.931Z,40.70
2022-08-26T19:48:44.565Z,40.82
2022-08-26T19:51:23.133Z,41.41
2022-08-26T19:53:50.848Z,42.05
2022-08-26T19:56:18.551Z,42.21
2022-08-26T19:58:46.184Z,42.22
2022-08-26T20:01:14.331Z,43.60
2022-08-26T20:03:42.321Z,43.62
2022-08-26T20:06:11.926Z,44.90
2022-08-26T20:08:40.099Z,44.65
2022-08-26T20:11:11.551Z,45.03
2022-08-26T20:13:38.422Z,45.09
2022-08-26T20:16:05.503Z,44.64
2022-08-26T20:18:32.009Z,44.16
2022-08-26T20:20:58.498Z,44.00
2022-08-26T20:23:25.026Z,43.72
2022-08-26T20:25:51.541Z,43.56
2022-08-26T20:28:18.038Z,43.45
2022-08-26T20:30:44.526Z,43.23
2022-08-26T20:33:11.084Z,43.14
2022-08-26T20:35:37.590Z,43.84
2022-08-26T20:38:04.090Z,43.91
2022-08-26T20:40:30.697Z,44.90
2022-08-26T20:42:57.760Z,44.36
2022-08-26T20:45:24.251Z,44.97
2022-08-26T20:47:50.751Z,44.30
2022-08-26T20:50:17.316Z,44.25
2022-08-26T20:52:43.831Z,44.12
2022-08-26T20:55:11.823Z,44.22
2022-08-26T20:57:38.346Z,43.60
2022-08-26T21:00:06.192Z,44.40
2022-08-26T21:02:33.770Z,46.20
2022-08-26T21:05:00.413Z,45.63
2022-08-26T21:07:26.969Z,46.10
2022-08-26T21:09:54.179Z,45.60
2022-08-26T21:12:20.695Z,46.06
2022-08-26T21:14:49.678Z,45.76
2022-08-26T21:17:16.668Z,45.77
2022-08-26T21:19:43.177Z,46.81
2022-08-26T21:22:10.099Z,45.79
2022-08-26T21:24:36.706Z,45.48
2022-08-26T21:27:03.823Z,45.95
2022-08-26T21:29:30.337Z,45.72
2022-08-26T21:31:57.086Z,45.17
2022-08-26T21:34:23.581Z,46.64
2022-08-26T21:36:50.264Z,46.11
2022-08-26T21:39:16.959Z,45.57
2022-08-26T21:41:44.834Z,45.91
2022-08-26T21:44:13.694Z,45.61
2022-08-26T21:46:41.493Z,45.92
2022-08-26T21:49:11.621Z,46.88
2022-08-26T21:51:41.589Z,46.53
2022-08-26T21:54:11.021Z,47.16
2022-08-26T21:56:41.642Z,46.62
2022-08-26T21:59:09.011Z,46.53
2022-08-26T22:01:36.250Z,46.11
2022-08-26T22:04:05.184Z,45.96
2022-08-26T22:06:33.612Z,45.81
2022-08-26T22:09:01.004Z,46.09
2022-08-26T22:11:28.348Z,46.02
2022-08-26T22:13:55.042Z,46.39
2022-08-26T22:16:21.658Z,46.56
2022-08-26T22:18:48.297Z,46.66
2022-08-26T22:21:19.921Z,46.81
2022-08-26T22:23:47.601Z,47.45
2022-08-26T22:26:20.584Z,47.63
2022-08-26T22:28:52.058Z,47.15
2022-08-26T22:31:28.139Z,46.96
2022-08-26T22:34:06.247Z,46.78
2022-08-26T22:36:32.794Z,47.05
2022-08-26T22:38:59.277Z,47.09
2022-08-26T22:41:25.796Z,47.62
2022-08-26T22:43:52.356Z,48.35
2022-08-26T22:46:21.624Z,48.21
2022-08-26T22:48:53.864Z,48.35
2022-08-26T22:51:22.052Z,48.89
2022-08-26T22:53:49.384Z,49.21
2022-08-26T22:56:16.239Z,48.73
2022-08-26T22:58:42.730Z,49.11
2022-08-26T23:01:09.626Z,48.65
2022-08-26T23:03:40.427Z,48.28
2022-08-26T23:06:09.156Z,48.18
2022-08-26T23:08:37.236Z,48.26
2022-08-26T23:11:08.804Z,48.10
2022-08-26T23:13:35.857Z,48.29
2022-08-26T23:16:07.480Z,48.75
2022-08-26T23:18:34.310Z,49.47
2022-08-26T23:21:00.834Z,48.67
2022-08-26T23:23:27.847Z,49.21
2022-08-26T23:25:55.687Z,48.99
2022-08-26T23:28:24.128Z,48.64
2022-08-26T23:30:50.622Z,49.28
2022-08-26T23:33:17.189Z,48.66
2022-08-26T23:35:43.744Z,49.69
2022-08-26T23:38:10.389Z,50.71
2022-08-26T23:40:41.335Z,50.72
2022-08-26T23:43:10.002Z,51.52
2022-08-26T23:45:36.690Z,51.45
2022-08-26T23:48:05.011Z,50.62
2022-08-26T23:50:32.106Z,50.69
2022-08-26T23:52:58.585Z,51.30
2022-08-26T23:55:25.410Z,51.11
2022-08-26T23:57:51.912Z,50.62
